Time;durP1;ratioP1;P1;durP2;ratioP2;P2;SDS_P1;SDS_P2;PMS_P1;PMS_P2;Temp;Humidity;BMP_temperature;BMP_pressure;BME280_temperature;BME280_humidity;BME280_pressure;Samples;Min_cycle;Max_cycle;Signal;HPM_P1;HPM_P2
2022/08/11 00:00:11;;;;;;;5.80;4.10;;;18.30;99.90;;;;;;5116958;28;20863;-47
2022/08/11 00:02:41;;;;;;;6.27;3.93;;;18.40;99.90;;;;;;5117063;28;20459;-55
2022/08/11 00:05:11;;;;;;;4.80;4.30;;;18.30;99.90;;;;;;5117557;28;20550;-49
2022/08/11 00:07:52;;;;;;;5.10;4.60;;;18.20;99.90;;;;;;5117745;28;20967;-50
2022/08/11 00:10:22;;;;;;;4.60;4.20;;;18.20;99.90;;;;;;5118032;28;20459;-49
2022/08/11 00:12:56;;;;;;;4.97;4.57;;;18.20;99.90;;;;;;5117192;28;20459;-50
2022/08/11 00:15:29;;;;;;;4.83;4.40;;;18.10;99.90;;;;;;5117238;28;20490;-52
2022/08/11 00:17:58;;;;;;;6.63;4.17;;;17.90;99.90;;;;;;5117728;28;20459;-53
2022/08/11 00:20:31;;;;;;;4.97;4.47;;;17.90;99.90;;;;;;5117738;28;20467;-55
2022/08/11 00:23:09;;;;;;;4.50;4.10;;;17.90;99.90;;;;;;5117334;28;20491;-49
2022/08/11 00:25:39;;;;;;;4.47;4.07;;;17.80;99.90;;;;;;5117697;28;20476;-55
2022/08/11 00:28:24;;;;;;;6.00;3.50;;;17.70;99.90;;;;;;5117527;28;20584;-50
2022/08/11 00:30:57;;;;;;;5.30;4.80;;;17.70;99.90;;;;;;5117274;28;20452;-47
2022/08/11 00:33:32;;;;;;;5.27;4.30;;;17.70;99.90;;;;;;5116503;28;20516;-53
2022/08/11 00:36:03;;;;;;;4.90;4.50;;;17.60;99.90;;;;;;5117773;28;20482;-52
2022/08/11 00:38:33;;;;;;;4.80;4.13;;;17.60;99.90;;;;;;5117744;28;20870;-50
2022/08/11 00:41:11;;;;;;;4.40;4.10;;;17.50;99.90;;;;;;5117444;28;20530;-54
2022/08/11 00:43:59;;;;;;;4.50;4.10;;;17.40;99.90;;;;;;5120901;28;20451;-49
2022/08/11 00:46:42;;;;;;;5.87;4.03;;;17.50;99.90;;;;;;5120707;28;20546;-47
2022/08/11 00:49:21;;;;;;;4.97;4.47;;;17.40;99.90;;;;;;5120689;28;20499;-51
2022/08/11 00:52:00;;;;;;;5.57;4.93;;;17.50;99.90;;;;;;5121261;28;20455;-53
2022/08/11 00:55:00;;;;;;;4.03;3.73;;;17.40;99.90;;;;;;5121270;27;20459;-50
2022/08/11 00:58:13;;;;;;;4.90;4.07;;;17.40;99.90;;;;;;5096283;27;20474;-56
2022/08/11 01:01:07;;;;;;;5.10;4.20;;;17.30;99.90;;;;;;5089012;28;20948;-53
2022/08/11 01:04:14;;;;;;;6.87;4.47;;;17.30;99.90;;;;;;5120828;28;20498;-49
2022/08/11 01:07:05;;;;;;;4.80;4.40;;;17.30;99.90;;;;;;5094025;28;20873;-53
2022/08/11 01:09:51;;;;;;;8.43;4.10;;;17.30;99.90;;;;;;5120739;28;20554;-54
2022/08/11 01:12:39;;;;;;;3.97;3.67;;;17.30;99.90;;;;;;5120361;28;20593;-50
2022/08/11 01:19:01;;;;;;;4.27;3.87;;;17.20;99.90;;;;;;5120423;28;20414;-52
2022/08/11 01:22:12;;;;;;;5.43;4.93;;;17.10;99.90;;;;;;5120238;28;20530;-50
2022/08/11 01:25:17;;;;;;;5.40;4.90;;;17.10;99.90;;;;;;5057386;28;20901;-52
2022/08/11 01:28:23;;;;;;;4.77;4.37;;;17.00;99.90;;;;;;5120272;28;20525;-53
2022/08/11 01:31:19;;;;;;;5.73;3.87;;;16.80;99.90;;;;;;5120313;28;20801;-53
2022/08/11 01:34:35;;;;;;;4.50;3.97;;;16.80;99.90;;;;;;5120160;28;20495;-52
2022/08/11 01:37:52;;;;;;;6.03;4.10;;;16.90;99.90;;;;;;5119404;28;20572;-48
2022/08/11 01:40:48;;;;;;;5.23;4.40;;;16.80;99.90;;;;;;5062398;28;20490;-50
2022/08/11 01:46:46;;;;;;;4.70;4.00;;;16.90;99.90;;;;;;5119123;28;20457;-53
2022/08/11 01:49:24;;;;;;;5.00;4.13;;;16.90;99.90;;;;;;5119900;28;20462;-54
2022/08/11 01:52:07;;;;;;;5.33;4.83;;;16.90;99.90;;;;;;5120176;28;20815;-54
2022/08/11 01:54:45;;;;;;;5.20;4.80;;;16.80;99.90;;;;;;5118608;28;20892;-49
2022/08/11 01:57:32;;;;;;;4.83;4.30;;;16.70;99.90;;;;;;5119886;28;20727;-51
2022/08/11 02:00:07;;;;;;;5.30;3.87;;;16.80;99.90;;;;;;5119841;28;20434;-50
2022/08/11 02:02:52;;;;;;;8.20;4.50;;;16.70;99.90;;;;;;5119794;28;20429;-53
2022/08/11 02:05:59;;;;;;;4.70;4.27;;;16.70;99.90;;;;;;5119433;28;20467;-49
2022/08/11 02:08:41;;;;;;;6.60;3.90;;;16.60;99.90;;;;;;5110615;28;20446;-56
2022/08/11 02:14:19;;;;;;;4.80;4.40;;;16.60;99.90;;;;;;5118610;28;20479;-53
2022/08/11 02:17:19;;;;;;;4.87;4.47;;;16.60;99.90;;;;;;5118698;27;20493;-51
2022/08/11 02:25:46;;;;;;;5.60;3.80;;;16.50;99.90;;;;;;5118897;28;20891;-53
2022/08/11 02:28:27;;;;;;;5.60;5.10;;;16.40;99.90;;;;;;5119442;28;20478;-54
2022/08/11 02:34:11;;;;;;;6.73;4.67;;;16.40;99.90;;;;;;5118043;28;20914;-50
2022/08/11 02:36:49;;;;;;;4.87;4.40;;;16.40;99.90;;;;;;5118481;27;20495;-51
2022/08/11 02:39:23;;;;;;;4.47;4.07;;;16.40;99.90;;;;;;5118764;28;20459;-54
2022/08/11 02:44:55;;;;;;;4.73;4.33;;;16.30;99.90;;;;;;5118122;28;20410;-52
2022/08/11 02:47:37;;;;;;;6.00;4.13;;;16.30;99.90;;;;;;5118725;28;20740;-55
2022/08/11 02:50:15;;;;;;;5.50;5.00;;;16.30;99.90;;;;;;5118966;28;20459;-48
2022/08/11 02:52:57;;;;;;;5.60;5.10;;;16.30;99.90;;;;;;5118931;28;20504;-49
2022/08/11 02:55:32;;;;;;;5.97;5.43;;;16.10;99.90;;;;;;5118744;28;20463;-51
2022/08/11 02:58:10;;;;;;;5.53;5.03;;;16.10;99.90;;;;;;5118669;28;20509;-51
2022/08/11 03:00:50;;;;;;;6.30;5.10;;;16.10;99.90;;;;;;5118325;28;20513;-53
2022/08/11 03:03:29;;;;;;;5.40;5.00;;;16.00;99.90;;;;;;5118273;28;20459;-53
2022/08/11 03:06:08;;;;;;;5.37;4.87;;;16.00;99.90;;;;;;5118294;28;20463;-48
2022/08/11 03:08:51;;;;;;;5.20;4.70;;;16.00;99.90;;;;;;5118393;28;20934;-53
2022/08/11 03:17:25;;;;;;;5.30;4.20;;;16.00;99.90;;;;;;5117829;28;20443;-50
2022/08/11 03:20:06;;;;;;;5.30;4.80;;;15.90;99.90;;;;;;5117876;28;20495;-53
2022/08/11 03:22:37;;;;;;;5.10;4.70;;;15.90;99.90;;;;;;5118654;28;20551;-53
2022/08/11 03:25:14;;;;;;;5.63;5.13;;;15.80;99.90;;;;;;5117767;28;20470;-54
2022/08/11 03:27:50;;;;;;;5.37;4.40;;;15.80;99.90;;;;;;5118209;28;20806;-52
2022/08/11 03:30:20;;;;;;;5.97;4.83;;;15.80;99.90;;;;;;5118068;28;20434;-51
2022/08/11 03:36:03;;;;;;;4.80;4.10;;;15.70;99.90;;;;;;5117693;28;20430;-48
2022/08/11 03:38:45;;;;;;;5.20;4.70;;;15.70;99.90;;;;;;5118063;28;20434;-50
2022/08/11 03:44:38;;;;;;;5.90;5.40;;;15.60;99.90;;;;;;5117229;28;20447;-52
2022/08/11 03:47:47;;;;;;;5.67;4.87;;;15.60;99.90;;;;;;5117765;28;20493;-55
2022/08/11 03:50:28;;;;;;;7.33;4.60;;;15.70;99.90;;;;;;5100291;28;20438;-49
2022/08/11 03:53:10;;;;;;;5.50;5.00;;;15.70;99.90;;;;;;5117645;28;20669;-47
2022/08/11 03:56:19;;;;;;;7.17;5.13;;;15.70;99.90;;;;;;5117875;28;20459;-53
2022/08/11 03:59:16;;;;;;;7.73;5.20;;;15.60;99.90;;;;;;5117577;28;20500;-51
2022/08/11 04:02:09;;;;;;;5.83;5.33;;;15.50;99.90;;;;;;5102691;28;20998;-51
2022/08/11 04:05:24;;;;;;;6.47;5.67;;;15.60;99.90;;;;;;5096551;28;20467;-51
2022/08/11 04:08:18;;;;;;;6.30;5.50;;;15.50;99.90;;;;;;5096216;28;20464;-48
2022/08/11 04:11:12;;;;;;;6.00;5.40;;;15.50;99.90;;;;;;5096118;28;20439;-48
2022/08/11 04:17:36;;;;;;;7.37;5.17;;;15.50;99.90;;;;;;5087108;28;20448;-49
2022/08/11 04:20:22;;;;;;;6.00;5.50;;;15.50;99.90;;;;;;5099301;28;20779;-50
2022/08/11 04:23:07;;;;;;;6.40;5.80;;;15.50;99.90;;;;;;5067612;28;20531;-55
2022/08/11 04:26:00;;;;;;;8.53;5.77;;;15.50;99.90;;;;;;5099113;28;20459;-56
2022/08/11 04:29:00;;;;;;;5.80;4.80;;;15.50;99.90;;;;;;5087970;28;20861;-49
2022/08/11 04:31:39;;;;;;;10.83;5.67;;;15.50;99.90;;;;;;5095974;28;20459;-50
2022/08/11 04:34:38;;;;;;;5.97;5.10;;;15.50;99.90;;;;;;5097823;28;20459;-48
2022/08/11 04:37:42;;;;;;;5.57;5.07;;;15.60;99.90;;;;;;5086723;28;20481;-50
2022/08/11 04:41:13;;;;;;;6.20;5.33;;;15.70;99.90;;;;;;5081236;28;20465;-48
2022/08/11 04:44:24;;;;;;;8.10;5.23;;;15.70;99.90;;;;;;5016604;28;20459;-53
2022/08/11 04:47:10;;;;;;;5.57;5.07;;;15.80;99.90;;;;;;5016431;28;20896;-49
2022/08/11 05:03:06;;;;;;;6.97;5.93;;;15.80;99.90;;;;;;5079479;28;20458;-52
2022/08/11 05:05:53;;;;;;;6.20;5.60;;;15.90;99.90;;;;;;5078725;28;20461;-48
2022/08/11 05:08:59;;;;;;;7.47;6.37;;;15.90;99.90;;;;;;5076540;28;20508;-49
2022/08/11 05:12:02;;;;;;;5.93;5.37;;;15.90;99.90;;;;;;5052952;28;21254;-50
2022/08/11 05:34:55;;;;;;;6.80;5.63;;;16.50;99.90;;;;;;5031314;28;20442;-51
2022/08/11 05:57:25;;;;;;;7.20;4.83;;;17.60;99.90;;;;;;5033280;28;20773;-52
2022/08/11 06:00:00;;;;;;;5.67;5.07;;;17.80;99.90;;;;;;5054946;28;20513;-54
2022/08/11 06:02:28;;;;;;;5.07;4.57;;;18.00;99.90;;;;;;5097798;28;20944;-50
2022/08/11 06:04:59;;;;;;;5.87;4.73;;;18.20;99.90;;;;;;5097877;28;20468;-55
2022/08/11 06:07:32;;;;;;;6.03;4.80;;;18.40;99.90;;;;;;5097685;28;20464;-55
2022/08/11 06:10:00;;;;;;;5.17;4.67;;;18.70;99.90;;;;;;5097077;28;20514;-54
2022/08/11 06:12:39;;;;;;;5.93;5.33;;;18.90;99.90;;;;;;5097733;28;20805;-54
2022/08/11 06:15:13;;;;;;;6.77;4.97;;;19.20;99.90;;;;;;5097524;28;20926;-56
2022/08/11 06:17:46;;;;;;;5.77;4.20;;;19.60;99.90;;;;;;5098178;28;20509;-58
2022/08/11 06:20:18;;;;;;;5.90;4.93;;;19.90;99.90;;;;;;5080031;28;20555;-56
2022/08/11 06:22:48;;;;;;;6.63;5.23;;;20.20;99.90;;;;;;5093913;28;20459;-51
2022/08/11 06:25:17;;;;;;;6.67;4.77;;;20.50;99.90;;;;;;5096289;28;20456;-56
2022/08/11 06:27:47;;;;;;;5.77;5.27;;;20.80;99.90;;;;;;5097371;28;21070;-56
2022/08/11 06:30:15;;;;;;;4.60;4.20;;;21.00;99.90;;;;;;5098334;28;20471;-53
2022/08/11 06:32:54;;;;;;;5.57;4.50;;;21.20;99.90;;;;;;5096986;28;20557;-50
2022/08/11 06:35:34;;;;;;;6.13;4.80;;;21.50;99.90;;;;;;5098209;28;20451;-54
2022/08/11 06:38:10;;;;;;;4.83;4.30;;;21.90;99.90;;;;;;5098327;28;20482;-54
2022/08/11 06:41:29;;;;;;;7.27;5.20;;;22.60;99.90;;;;;;5094858;28;20499;-56
2022/08/11 06:43:52;;;;;;;7.07;5.07;;;22.80;99.90;;;;;;5096054;28;20440;-56
2022/08/11 06:46:28;;;;;;;4.40;4.10;;;23.10;99.90;;;;;;5097184;28;20463;-58
2022/08/11 06:48:58;;;;;;;5.10;4.60;;;23.60;99.90;;;;;;5096820;28;20452;-59
2022/08/11 06:51:29;;;;;;;5.27;4.80;;;23.80;99.90;;;;;;5097333;28;20813;-56
2022/08/11 06:54:01;;;;;;;4.63;4.23;;;24.10;99.90;;;;;;5093769;28;20459;-51
2022/08/11 07:02:19;;;;;;;6.70;5.00;;;25.10;99.90;;;;;;5097261;28;20479;-59
2022/08/11 07:04:55;;;;;;;5.73;4.80;;;25.30;99.90;;;;;;5097561;28;20430;-59
2022/08/11 07:16:51;;;;;;;4.70;4.30;;;26.00;99.90;;;;;;5095761;28;20795;-60
2022/08/11 07:30:52;;;;;;;5.27;4.77;;;27.60;99.90;;;;;;5096576;28;20479;-55
2022/08/11 07:33:27;;;;;;;5.17;4.10;;;27.90;99.90;;;;;;5097749;28;20456;-57
2022/08/11 07:36:01;;;;;;;5.27;4.40;;;27.90;99.90;;;;;;5097736;28;20500;-58
2022/08/11 07:38:43;;;;;;;5.13;4.63;;;27.80;99.90;;;;;;5095207;28;20797;-57
2022/08/11 07:41:18;;;;;;;5.33;4.83;;;28.20;99.90;;;;;;5097013;28;20835;-57
2022/08/11 07:43:50;;;;;;;5.30;4.30;;;28.60;99.90;;;;;;5097123;28;20505;-58
2022/08/11 07:54:42;;;;;;;4.20;3.90;;;28.50;99.90;;;;;;5096532;28;20431;-55
2022/08/11 08:19:30;;;;;;;4.33;3.93;;;31.10;99.90;;;;;;5096304;28;20463;-58
2022/08/11 08:22:09;;;;;;;5.97;3.47;;;31.40;99.90;;;;;;5097055;28;20495;-58
2022/08/11 08:24:43;;;;;;;4.03;3.60;;;31.60;99.90;;;;;;5096185;28;20475;-58
2022/08/11 08:27:14;;;;;;;5.47;4.00;;;32.00;99.90;;;;;;5096709;28;20462;-55
2022/08/11 08:32:34;;;;;;;4.17;3.63;;;32.10;99.90;;;;;;5095819;28;20888;-58
2022/08/11 08:35:04;;;;;;;5.00;4.53;;;32.20;99.90;;;;;;5095803;28;20456;-58
2022/08/11 08:37:34;;;;;;;4.40;4.10;;;32.40;99.90;;;;;;5096426;28;20940;-57
2022/08/11 08:40:10;;;;;;;4.10;3.80;;;31.90;99.90;;;;;;5096851;28;20907;-55
2022/08/11 08:42:54;;;;;;;5.00;3.97;;;32.30;99.90;;;;;;5096555;28;20491;-58
2022/08/11 08:45:29;;;;;;;3.30;3.10;;;32.60;99.90;;;;;;5096650;28;20555;-55
2022/08/11 08:48:00;;;;;;;4.63;3.90;;;32.70;99.90;;;;;;5096384;28;20463;-55
2022/08/11 08:53:12;;;;;;;3.67;3.37;;;33.00;99.90;;;;;;5096434;28;20460;-53
2022/08/11 08:55:41;;;;;;;3.57;3.30;;;32.70;99.90;;;;;;5096482;28;20452;-56
2022/08/11 08:58:13;;;;;;;3.90;3.60;;;32.70;99.90;;;;;;5095183;28;20441;-57
2022/08/11 09:00:50;;;;;;;4.60;4.20;;;32.90;99.90;;;;;;5095551;28;20452;-56
2022/08/11 09:03:19;;;;;;;4.23;3.90;;;33.10;99.90;;;;;;5094776;28;20939;-54
2022/08/11 09:05:52;;;;;;;4.10;3.70;;;33.30;99.90;;;;;;5100524;28;20470;-57
2022/08/11 09:08:22;;;;;;;3.90;3.50;;;33.40;99.90;;;;;;5100669;28;20513;-57
2022/08/11 09:11:48;;;;;;;3.87;3.60;;;33.40;99.90;;;;;;5100152;28;20442;-57
2022/08/11 09:13:43;;;;;;;4.03;3.63;;;33.10;99.90;;;;;;5100037;28;20790;-58
2022/08/11 09:16:13;;;;;;;5.77;4.23;;;33.10;99.90;;;;;;5099086;28;20514;-56
2022/08/11 09:18:44;;;;;;;4.17;3.77;;;33.10;99.90;;;;;;5097599;28;20491;-55
2022/08/11 09:21:19;;;;;;;3.40;3.10;;;33.40;99.90;;;;;;5098409;28;20941;-57
2022/08/11 09:26:59;;;;;;;5.17;3.90;;;34.00;99.90;;;;;;5099565;28;20435;-58
2022/08/11 09:29:30;;;;;;;4.60;4.20;;;34.10;99.90;;;;;;5099546;28;20464;-57
2022/08/11 09:32:00;;;;;;;3.80;3.60;;;34.40;99.90;;;;;;5097315;28;20853;-55
2022/08/11 09:34:35;;;;;;;4.17;3.83;;;34.40;99.90;;;;;;5098324;28;20455;-55
2022/08/11 09:40:34;;;;;;;6.33;3.40;;;34.00;99.90;;;;;;5056621;28;20895;-58
2022/08/11 09:45:55;;;;;;;4.10;3.70;;;34.40;99.90;;;;;;5081623;28;20462;-58
2022/08/11 09:48:35;;;;;;;3.63;3.40;;;34.50;99.90;;;;;;5091072;28;20480;-57
2022/08/11 09:51:07;;;;;;;4.63;3.90;;;34.40;99.90;;;;;;5079440;28;20518;-58
2022/08/11 09:53:40;;;;;;;3.90;3.60;;;34.50;99.90;;;;;;5079267;28;20435;-56
2022/08/11 09:59:07;;;;;;;3.70;3.40;;;34.60;99.90;;;;;;5093196;28;20951;-55
2022/08/11 10:01:40;;;;;;;3.87;3.57;;;34.80;99.90;;;;;;5081074;28;20517;-57
2022/08/11 10:04:15;;;;;;;3.53;3.23;;;34.60;99.90;;;;;;5099352;28;20499;-55
2022/08/11 10:09:34;;;;;;;3.53;3.33;;;35.00;99.90;;;;;;5098954;28;20443;-58
2022/08/11 10:12:03;;;;;;;4.67;4.27;;;34.80;99.90;;;;;;5099232;28;20456;-57
2022/08/11 10:17:25;;;;;;;8.13;3.60;;;34.10;99.90;;;;;;5096752;28;20446;-58
2022/08/11 10:19:57;;;;;;;4.17;3.57;;;33.40;99.90;;;;;;5083953;28;20463;-58
2022/08/11 10:28:05;;;;;;;3.73;3.10;;;34.40;99.90;;;;;;5092236;28;20744;-58
2022/08/11 10:36:13;;;;;;;3.97;3.67;;;35.20;99.90;;;;;;5094725;28;20243;-57
2022/08/11 10:38:44;;;;;;;3.90;3.60;;;35.00;99.90;;;;;;5096602;28;20518;-59
2022/08/11 10:44:09;;;;;;;6.47;3.67;;;35.60;99.90;;;;;;5083463;28;20784;-58
2022/08/11 10:49:33;;;;;;;3.40;3.10;;;35.80;99.90;;;;;;5096879;28;20459;-57
2022/08/11 11:00:23;;;;;;;4.27;3.87;;;36.00;99.90;;;;;;5095216;28;20429;-59
2022/08/11 11:02:52;;;;;;;4.10;3.80;;;36.00;99.90;;;;;;5095848;28;21022;-58
2022/08/11 11:05:27;;;;;;;3.53;3.22;;;35.80;99.90;;;;;;5091113;28;20479;-59
2022/08/11 11:08:51;;;;;;;6.22;4.22;;;36.10;99.90;;;;;;5095396;28;20205;-57
2022/08/11 11:10:56;;;;;;;4.55;3.83;;;36.10;99.90;;;;;;5094980;28;20212;-56
2022/08/11 11:19:09;;;;;;;4.00;3.80;;;36.20;99.90;;;;;;5096110;28;20454;-59
2022/08/11 11:21:45;;;;;;;6.70;3.80;;;35.90;99.90;;;;;;5097019;28;20524;-54
2022/08/11 11:24:36;;;;;;;3.40;3.10;;;35.90;99.90;;;;;;5093508;28;20539;-59
2022/08/11 11:27:14;;;;;;;4.30;3.90;;;36.00;99.90;;;;;;5100016;28;20465;-59
2022/08/11 11:29:57;;;;;;;3.60;3.30;;;36.50;99.90;;;;;;5099037;28;20828;-57
2022/08/11 11:32:31;;;;;;;4.53;4.00;;;36.90;99.90;;;;;;5089153;28;20528;-55
2022/08/11 11:35:26;;;;;;;3.80;3.60;;;35.70;99.90;;;;;;5091952;28;20473;-59
2022/08/11 11:37:56;;;;;;;4.28;4.00;;;36.00;99.90;;;;;;5097888;28;20237;-53
2022/08/11 11:40:33;;;;;;;4.40;4.10;;;36.10;99.90;;;;;;5097718;28;20202;-59
2022/08/11 11:43:04;;;;;;;4.10;3.90;;;36.00;99.90;;;;;;5097082;28;20222;-57
2022/08/11 11:45:32;;;;;;;4.32;3.92;;;36.60;99.90;;;;;;5096987;28;20206;-59
2022/08/11 11:48:01;;;;;;;4.10;3.70;;;36.80;99.90;;;;;;5096954;28;20209;-58
2022/08/11 11:50:33;;;;;;;4.18;3.92;;;37.00;99.90;;;;;;5097795;28;20501;-59
2022/08/11 11:53:03;;;;;;;5.50;5.00;;;37.00;99.90;;;;;;5096787;28;20201;-58
2022/08/11 11:55:32;;;;;;;4.75;4.35;;;36.90;99.90;;;;;;5096628;28;20205;-59
2022/08/11 12:03:39;;;;;;;4.00;3.80;;;36.90;99.90;;;;;;5096692;28;20228;-58
2022/08/11 12:06:09;;;;;;;4.60;4.15;;;37.20;99.90;;;;;;5095973;28;20205;-58
2022/08/11 12:08:41;;;;;;;4.03;3.72;;;37.50;99.90;;;;;;5095264;28;20249;-59
2022/08/11 12:14:00;;;;;;;4.28;4.07;;;37.20;99.90;;;;;;5091555;28;20193;-59
2022/08/11 12:16:29;;;;;;;4.38;4.07;;;36.60;99.90;;;;;;5096864;28;20206;-58
2022/08/11 12:19:03;;;;;;;4.90;4.60;;;37.20;99.90;;;;;;5084717;28;20562;-56
2022/08/11 12:21:33;;;;;;;4.75;4.35;;;37.20;99.90;;;;;;5096543;28;20204;-58
2022/08/11 12:29:44;;;;;;;4.20;3.83;;;36.90;99.90;;;;;;5064117;28;20222;-58
2022/08/11 12:32:21;;;;;;;4.47;4.07;;;37.20;99.90;;;;;;5082666;28;20273;-59
2022/08/11 12:34:49;;;;;;;4.28;3.97;;;37.10;99.90;;;;;;5096157;28;20255;-56
2022/08/11 12:37:22;;;;;;;5.10;4.32;;;37.40;99.90;;;;;;5096439;28;20205;-60
2022/08/11 12:45:36;;;;;;;4.40;4.10;;;36.80;99.90;;;;;;5100357;28;20687;-59
2022/08/11 12:53:57;;;;;;;5.32;4.00;;;37.60;99.90;;;;;;5094911;28;20201;-59
2022/08/11 13:04:59;;;;;;;4.00;3.63;;;36.50;99.90;;;;;;5097761;28;20228;-59
2022/08/11 13:07:28;;;;;;;4.20;3.90;;;37.10;99.90;;;;;;5099863;28;20438;-58
2022/08/11 13:09:56;;;;;;;5.30;4.50;;;37.10;99.90;;;;;;5100691;28;20487;-57
2022/08/11 13:15:14;;;;;;;4.27;3.97;;;36.90;99.90;;;;;;5097558;28;20449;-55
2022/08/11 13:17:46;;;;;;;5.93;5.00;;;37.30;99.90;;;;;;5094588;28;20578;-57
2022/08/11 13:20:24;;;;;;;5.20;3.72;;;37.60;99.90;;;;;;5098140;28;20205;-55
2022/08/11 13:22:54;;;;;;;4.38;4.18;;;37.80;99.90;;;;;;5095807;28;20241;-57
2022/08/11 13:25:26;;;;;;;5.35;4.95;;;37.40;99.90;;;;;;5095621;28;20247;-57
2022/08/11 13:28:00;;;;;;;5.13;4.72;;;37.50;99.90;;;;;;5095061;28;20300;-58
2022/08/11 13:33:27;;;;;;;4.80;4.47;;;35.40;99.90;;;;;;5098301;28;20201;-57
2022/08/11 13:35:57;;;;;;;5.33;4.97;;;34.70;99.90;;;;;;5099432;28;20462;-58
2022/08/11 13:38:27;;;;;;;5.27;4.80;;;34.30;99.90;;;;;;5097812;28;20511;-56
2022/08/11 13:40:58;;;;;;;4.27;3.97;;;33.90;99.90;;;;;;5078417;28;20453;-57
2022/08/11 13:43:28;;;;;;;4.83;4.33;;;35.00;99.90;;;;;;5088270;28;20916;-51
2022/08/11 13:48:40;;;;;;;5.83;4.37;;;36.10;99.90;;;;;;5097262;28;20426;-55
2022/08/11 13:53:57;;;;;;;5.53;4.47;;;35.70;99.90;;;;;;5099156;28;20530;-55
2022/08/11 13:56:26;;;;;;;4.80;4.40;;;36.10;99.90;;;;;;5088170;28;20504;-54
2022/08/11 13:58:55;;;;;;;4.80;4.50;;;36.30;99.90;;;;;;5082002;28;20442;-57
2022/08/11 14:01:34;;;;;;;3.93;3.53;;;35.80;99.90;;;;;;5082683;28;20928;-59
2022/08/11 14:04:10;;;;;;;5.30;4.60;;;36.40;99.90;;;;;;5078984;28;20765;-54
2022/08/11 14:06:52;;;;;;;4.10;3.80;;;36.50;99.90;;;;;;5078437;28;20464;-57
2022/08/11 14:09:25;;;;;;;6.47;4.27;;;36.80;99.90;;;;;;5078648;28;20522;-59
2022/08/11 14:14:56;;;;;;;5.20;4.20;;;36.00;99.90;;;;;;5077922;28;20375;-54
2022/08/11 14:17:30;;;;;;;4.57;4.23;;;34.10;99.90;;;;;;5078686;28;20447;-58
2022/08/11 14:20:07;;;;;;;4.93;4.53;;;33.50;99.90;;;;;;5078602;28;20490;-57
2022/08/11 14:22:37;;;;;;;4.57;4.17;;;33.50;99.90;;;;;;5083758;28;20470;-58
2022/08/11 14:25:15;;;;;;;4.63;4.30;;;33.60;99.90;;;;;;5086463;28;20488;-55
2022/08/11 14:27:50;;;;;;;6.33;4.80;;;34.50;99.90;;;;;;5095154;28;20471;-57
2022/08/11 14:33:01;;;;;;;4.30;4.00;;;35.70;99.90;;;;;;5096796;28;20435;-51
2022/08/11 14:35:30;;;;;;;4.57;4.23;;;35.90;99.90;;;;;;5097476;28;20435;-51
2022/08/11 14:38:00;;;;;;;4.70;4.30;;;35.30;99.90;;;;;;5086918;28;20472;-57
2022/08/11 14:49:02;;;;;;;4.60;4.23;;;34.70;99.90;;;;;;5096691;28;20439;-57
2022/08/11 14:51:30;;;;;;;4.87;4.47;;;35.60;99.90;;;;;;5094893;28;20517;-58
2022/08/11 14:56:45;;;;;;;4.57;4.17;;;36.10;99.90;;;;;;5077650;28;20407;-59
2022/08/11 14:59:14;;;;;;;5.63;4.23;;;35.90;99.90;;;;;;5077138;28;20465;-57
2022/08/11 15:04:38;;;;;;;4.43;4.13;;;35.70;99.90;;;;;;5096862;28;20530;-57
2022/08/11 15:07:09;;;;;;;4.33;3.93;;;35.50;99.90;;;;;;5095365;28;20552;-57
2022/08/11 15:09:39;;;;;;;4.20;4.00;;;35.70;99.90;;;;;;5097692;28;20456;-58
2022/08/11 15:12:15;;;;;;;4.40;4.00;;;35.20;99.90;;;;;;5095775;28;20908;-57
2022/08/11 15:17:33;;;;;;;4.63;4.33;;;35.20;99.90;;;;;;5086501;28;20576;-57
2022/08/11 15:25:39;;;;;;;4.77;4.37;;;35.30;99.90;;;;;;5077232;28;20477;-55
2022/08/11 15:39:33;;;;;;;5.37;5.00;;;34.80;99.90;;;;;;5076889;28;20436;-53
2022/08/11 15:47:56;;;;;;;6.00;4.30;;;34.10;99.90;;;;;;5097027;28;20490;-57
2022/08/11 15:50:30;;;;;;;6.97;4.87;;;33.90;99.90;;;;;;5096817;28;20542;-56
2022/08/11 15:53:11;;;;;;;5.27;4.50;;;33.90;99.90;;;;;;5096466;28;20463;-54
2022/08/11 15:55:39;;;;;;;5.93;4.90;;;34.00;99.90;;;;;;5096720;28;20877;-57
2022/08/11 16:06:42;;;;;;;5.93;4.20;;;33.50;99.90;;;;;;5096027;28;20431;-57
2022/08/11 16:09:13;;;;;;;6.30;4.97;;;33.50;99.90;;;;;;5097261;28;20463;-57
2022/08/11 16:11:42;;;;;;;4.73;4.43;;;33.50;99.90;;;;;;5095429;28;20467;-58
2022/08/11 16:17:08;;;;;;;4.47;4.10;;;33.50;99.90;;;;;;5100111;28;20450;-57
2022/08/11 16:19:39;;;;;;;4.93;4.63;;;33.20;99.90;;;;;;5093058;28;20469;-57
2022/08/11 16:22:11;;;;;;;4.80;4.40;;;33.10;99.90;;;;;;5097028;28;20810;-56
2022/08/11 16:24:51;;;;;;;4.37;4.00;;;33.10;99.90;;;;;;5079808;28;20500;-57
2022/08/11 16:27:25;;;;;;;4.73;4.43;;;32.90;99.90;;;;;;5097863;28;20888;-57
2022/08/11 16:29:55;;;;;;;7.30;5.37;;;32.80;99.90;;;;;;5090127;28;20463;-56
2022/08/11 16:32:27;;;;;;;5.50;5.13;;;32.50;99.90;;;;;;5098268;28;20462;-55
2022/08/11 16:40:37;;;;;;;5.23;4.73;;;32.20;99.90;;;;;;5099225;28;20757;-56
2022/08/11 16:48:45;;;;;;;4.90;4.50;;;31.70;99.90;;;;;;5100397;28;20485;-56
2022/08/11 16:51:19;;;;;;;4.70;4.40;;;31.70;99.90;;;;;;5100447;28;20509;-56
2022/08/11 16:53:56;;;;;;;5.27;4.87;;;31.50;99.90;;;;;;5100868;28;20476;-56
2022/08/11 16:56:29;;;;;;;4.97;4.50;;;31.60;99.90;;;;;;5100179;28;20451;-54
2022/08/11 16:59:15;;;;;;;4.57;4.17;;;31.50;99.90;;;;;;5100633;28;20860;-54
2022/08/11 17:01:51;;;;;;;4.87;4.50;;;31.50;99.90;;;;;;5100681;28;20478;-56
2022/08/11 17:13:10;;;;;;;5.53;4.30;;;31.60;99.90;;;;;;5091398;28;20474;-55
2022/08/11 17:18:47;;;;;;;4.67;4.27;;;31.20;99.90;;;;;;5100073;28;20752;-57
2022/08/11 17:21:32;;;;;;;5.13;4.67;;;31.10;99.90;;;;;;5110089;28;20460;-54
2022/08/11 17:24:05;;;;;;;4.90;4.50;;;31.00;99.90;;;;;;5099753;28;20488;-57
2022/08/11 17:26:55;;;;;;;4.90;4.50;;;31.00;99.90;;;;;;5097637;28;20467;-56
2022/08/11 17:29:33;;;;;;;4.90;4.47;;;30.70;99.90;;;;;;5100053;28;20491;-53
2022/08/11 17:37:49;;;;;;;4.63;4.27;;;29.90;99.90;;;;;;5083866;28;20729;-53
2022/08/11 17:40:23;;;;;;;5.30;4.97;;;29.80;99.90;;;;;;5099437;28;20456;-56
2022/08/11 17:48:30;;;;;;;6.50;4.90;;;29.30;99.90;;;;;;5099380;28;20440;-55
2022/08/11 17:51:05;;;;;;;5.20;4.70;;;29.20;99.90;;;;;;5116945;28;20785;-56
2022/08/11 18:04:57;;;;;;;4.43;4.13;;;28.50;99.90;;;;;;5077208;28;20598;-55
